Vedro sa niskom oblačnošću i cirusima
Delimično oblačno sa cirusima
Potpuno oblačno
Vedro sa niskom oblačnošću i cirusima
Delimično oblačno sa nekoliko cirusa
Delimično oblačno sa nekoliko cirusa
Delimično oblačno
Delimično oblačno
Delimično oblačno sa nekoliko cirusa
(°C)
18°
18°
19°
19°
20°
20°
21°
21°
21°
21°
22°
22°
22°
22°
23°
23°
23°
23°
(°C)
15°
17°
18°
18°
19°
19°
19°
19°
19°
JZ
JZ
JZ
JZ
JZ
ZJZ
JZ
Z
ZJZ
(km/h)
14-26
15-30
16-32
17-36
17-38
17-41
17-41
17-41
16-38
(mm)
0
0
0
0
0
0
0
0
0
(%)
0
0
0
0
0
6
12
0
1

Podizanje Sunca

/ 40.1°
sun-icon
UV 5
05:15
21:40
Prva četvrt meseca (96°)
14:44
00:20

METAR za Bordenau (ETNW)

Vreme Uslovi Temperatura/
Tačka rose
Vetar Vidljivost Vreme Oblaci Pritisak Promena Neobrađeno
VFR 17°C / 10°C 220º 8kt 9700m - Scattered Clouds 12000ft 1013 - ETNW 140720Z 22008KT 9999 SCT120 17/10 Q1013 BLU+BLU+
VFR 16°C / 11°C 210º 8kt 9700m - Few Clouds 7000ft
Scattered Clouds 11000ft
1013 - ETNW 140620Z 21008KT 9999 FEW070 SCT110 16/11 Q1013 BLU+BLU+
VFR 14°C / 11°C 130º 1kt 9700m - Scattered Clouds 10000ft
Scattered Clouds 24000ft
1013 - ETNW 140520Z 13001KT 9999 SCT100 SCT240 14/11 Q1013 BLU+
VFR 13°C / 11°C 220º 7kt 9700m - Scattered Clouds 10000ft 1013 - ETNW 140420Z 22007KT 9999 SCT100 13/11 Q1013 BLU+
VFR 13°C / 10°C 230º 6kt 9700m - Scattered Clouds 10000ft 1013 - ETNW 140320Z 23006KT 9999 SCT100 13/10 Q1013 BLU+
VFR 13°C / 11°C 230º 6kt 9700m - Few Clouds 9000ft 1012 - ETNW 140220Z 23006KT 9999 FEW090 13/11 Q1012 BLU+
VFR 12°C / 11°C 200º 5kt 9700m - Few Clouds 9000ft 1012 - ETNW 140120Z 20005KT 9999 FEW090 12/11 Q1012 BLU+
VFR 13°C / 11°C 190º 7kt 9700m - Few Clouds 5000ft 1012 - ETNW 140020Z 19007KT 9999 FEW050 13/11 Q1012 BLU+
VFR 13°C / 11°C 200º 5kt 9700m - Few Clouds 5000ft 1013 - ETNW 132320Z 20005KT 9999 FEW050 13/11 Q1013 BLU+
VFR 14°C / 12°C 200º 5kt 9700m - Scattered Clouds 5000ft 1013 - ETNW 132220Z 20005KT 9999 SCT050 14/12 Q1013 BLU+
VFR 15°C / 11°C 190º 4kt 9700m - Few Clouds 7000ft 1012 - ETNW 132120Z 19004KT 9999 FEW070 15/11 Q1012 BLU+
VFR 16°C / 11°C 250º 4kt 9700m - Few Clouds 7000ft 1012 - ETNW 132020Z 25004KT 9999 FEW070 16/11 Q1012 BLU+
VFR 17°C / 11°C 260º 4kt 9700m - Few Clouds 7000ft 1012 - ETNW 131920Z 26004KT 9999 FEW070 17/11 Q1012 BLU+
VFR 18°C / 11°C 260º 7kt 9700m - Few Clouds 4000ft
Scattered Clouds 7000ft
1012 - ETNW 131820Z 26007KT 9999 FEW040 SCT070 18/11 Q1012 BLU+
VFR 19°C / 10°C 250º 11kt 9700m - Scattered Clouds 3500ft
Scattered Clouds 6000ft
1012 - ETNW 131720Z 25011KT 9999 SCT035 SCT060 19/10 Q1012 BLU+
VFR 19°C / 10°C 230º 12kt 9700m - Scattered Clouds 3500ft
Scattered Clouds 6500ft
1012 - ETNW 131620Z 23012KT 9999 SCT035 SCT065 19/10 Q1012 BLU+
VFR 19°C / 11°C 230º 12kt 9700m - Scattered Clouds 3500ft
Broken Clouds 5000ft
1011 - ETNW 131520Z 23012KT 9999 SCT035 BKN050 19/11 Q1011 BLU
VFR 18°C / 11°C 230º 13kt 9700m - Broken Clouds 3500ft
Broken Clouds 5000ft
1011 - ETNW 131420Z 23013KT 9999 BKN035 BKN050 18/11 Q1011 BLU
VFR 18°C / 11°C 230º 12kt 9700m - Broken Clouds 3500ft 1011 - ETNW 131320Z 23012KT 9999 BKN035 18/11 Q1011 BLU
VFR 18°C / 10°C 230º 11kt 9700m - Broken Clouds 3500ft 1011 - ETNW 131220Z 23011KT 9999 BKN035 18/10 Q1011 BLU
VFR 18°C / 10°C 230º 13kt 9700m - Broken Clouds 3500ft 1011 - ETNW 131120Z 23013KT 9999 BKN035 18/10 Q1011 BLU
MVFR 17°C / 10°C 230º 13kt 9700m - Broken Clouds 3000ft 1011 - ETNW 131020Z 23013KT 9999 BKN030 17/10 Q1011 BLU
MVFR 17°C / 11°C 240º 11kt 9700m - Broken Clouds 2500ft 1011 - ETNW 130940Z 24011KT 9999 BKN025 17/11 Q1011 BLU
MVFR 17°C / 11°C 240º 10kt 9700m - Broken Clouds 2200ft 1010 - ETNW 130920Z 24010KT 9999 BKN022 17/11 Q1010 WHT

VFR

17°C / 10°C

[Više]
Vetar 220º 8kt
Vidljivost 9700m
Vreme -
Oblaci Scattered Clouds 12000ft
Pritisak 1013
Promena -
Neobrađeno ETNW 140720Z 22008KT 9999 SCT120 17/10 Q1013 BLU+BLU+

VFR

16°C / 11°C

[Više]
Vetar 210º 8kt
Vidljivost 9700m
Vreme -
Oblaci Few Clouds 7000ft
Scattered Clouds 11000ft
Pritisak 1013
Promena -
Neobrađeno ETNW 140620Z 21008KT 9999 FEW070 SCT110 16/11 Q1013 BLU+BLU+

VFR

14°C / 11°C

[Više]
Vetar 130º 1kt
Vidljivost 9700m
Vreme -
Oblaci Scattered Clouds 10000ft
Scattered Clouds 24000ft
Pritisak 1013
Promena -
Neobrađeno ETNW 140520Z 13001KT 9999 SCT100 SCT240 14/11 Q1013 BLU+

VFR

13°C / 11°C

[Više]
Vetar 220º 7kt
Vidljivost 9700m
Vreme -
Oblaci Scattered Clouds 10000ft
Pritisak 1013
Promena -
Neobrađeno ETNW 140420Z 22007KT 9999 SCT100 13/11 Q1013 BLU+

VFR

13°C / 10°C

[Više]
Vetar 230º 6kt
Vidljivost 9700m
Vreme -
Oblaci Scattered Clouds 10000ft
Pritisak 1013
Promena -
Neobrađeno ETNW 140320Z 23006KT 9999 SCT100 13/10 Q1013 BLU+

VFR

13°C / 11°C

[Više]
Vetar 230º 6kt
Vidljivost 9700m
Vreme -
Oblaci Few Clouds 9000ft
Pritisak 1012
Promena -
Neobrađeno ETNW 140220Z 23006KT 9999 FEW090 13/11 Q1012 BLU+

VFR

12°C / 11°C

[Više]
Vetar 200º 5kt
Vidljivost 9700m
Vreme -
Oblaci Few Clouds 9000ft
Pritisak 1012
Promena -
Neobrađeno ETNW 140120Z 20005KT 9999 FEW090 12/11 Q1012 BLU+

VFR

13°C / 11°C

[Više]
Vetar 190º 7kt
Vidljivost 9700m
Vreme -
Oblaci Few Clouds 5000ft
Pritisak 1012
Promena -
Neobrađeno ETNW 140020Z 19007KT 9999 FEW050 13/11 Q1012 BLU+

VFR

13°C / 11°C

[Više]
Vetar 200º 5kt
Vidljivost 9700m
Vreme -
Oblaci Few Clouds 5000ft
Pritisak 1013
Promena -
Neobrađeno ETNW 132320Z 20005KT 9999 FEW050 13/11 Q1013 BLU+

VFR

14°C / 12°C

[Više]
Vetar 200º 5kt
Vidljivost 9700m
Vreme -
Oblaci Scattered Clouds 5000ft
Pritisak 1013
Promena -
Neobrađeno ETNW 132220Z 20005KT 9999 SCT050 14/12 Q1013 BLU+

VFR

15°C / 11°C

[Više]
Vetar 190º 4kt
Vidljivost 9700m
Vreme -
Oblaci Few Clouds 7000ft
Pritisak 1012
Promena -
Neobrađeno ETNW 132120Z 19004KT 9999 FEW070 15/11 Q1012 BLU+

VFR

16°C / 11°C

[Više]
Vetar 250º 4kt
Vidljivost 9700m
Vreme -
Oblaci Few Clouds 7000ft
Pritisak 1012
Promena -
Neobrađeno ETNW 132020Z 25004KT 9999 FEW070 16/11 Q1012 BLU+

VFR

17°C / 11°C

[Više]
Vetar 260º 4kt
Vidljivost 9700m
Vreme -
Oblaci Few Clouds 7000ft
Pritisak 1012
Promena -
Neobrađeno ETNW 131920Z 26004KT 9999 FEW070 17/11 Q1012 BLU+

VFR

18°C / 11°C

[Više]
Vetar 260º 7kt
Vidljivost 9700m
Vreme -
Oblaci Few Clouds 4000ft
Scattered Clouds 7000ft
Pritisak 1012
Promena -
Neobrađeno ETNW 131820Z 26007KT 9999 FEW040 SCT070 18/11 Q1012 BLU+

VFR

19°C / 10°C

[Više]
Vetar 250º 11kt
Vidljivost 9700m
Vreme -
Oblaci Scattered Clouds 3500ft
Scattered Clouds 6000ft
Pritisak 1012
Promena -
Neobrađeno ETNW 131720Z 25011KT 9999 SCT035 SCT060 19/10 Q1012 BLU+

VFR

19°C / 10°C

[Više]
Vetar 230º 12kt
Vidljivost 9700m
Vreme -
Oblaci Scattered Clouds 3500ft
Scattered Clouds 6500ft
Pritisak 1012
Promena -
Neobrađeno ETNW 131620Z 23012KT 9999 SCT035 SCT065 19/10 Q1012 BLU+

VFR

19°C / 11°C

[Više]
Vetar 230º 12kt
Vidljivost 9700m
Vreme -
Oblaci Scattered Clouds 3500ft
Broken Clouds 5000ft
Pritisak 1011
Promena -
Neobrađeno ETNW 131520Z 23012KT 9999 SCT035 BKN050 19/11 Q1011 BLU

VFR

18°C / 11°C

[Više]
Vetar 230º 13kt
Vidljivost 9700m
Vreme -
Oblaci Broken Clouds 3500ft
Broken Clouds 5000ft
Pritisak 1011
Promena -
Neobrađeno ETNW 131420Z 23013KT 9999 BKN035 BKN050 18/11 Q1011 BLU

VFR

18°C / 11°C

[Više]
Vetar 230º 12kt
Vidljivost 9700m
Vreme -
Oblaci Broken Clouds 3500ft
Pritisak 1011
Promena -
Neobrađeno ETNW 131320Z 23012KT 9999 BKN035 18/11 Q1011 BLU

VFR

18°C / 10°C

[Više]
Vetar 230º 11kt
Vidljivost 9700m
Vreme -
Oblaci Broken Clouds 3500ft
Pritisak 1011
Promena -
Neobrađeno ETNW 131220Z 23011KT 9999 BKN035 18/10 Q1011 BLU

VFR

18°C / 10°C

[Više]
Vetar 230º 13kt
Vidljivost 9700m
Vreme -
Oblaci Broken Clouds 3500ft
Pritisak 1011
Promena -
Neobrađeno ETNW 131120Z 23013KT 9999 BKN035 18/10 Q1011 BLU

MVFR

17°C / 10°C

[Više]
Vetar 230º 13kt
Vidljivost 9700m
Vreme -
Oblaci Broken Clouds 3000ft
Pritisak 1011
Promena -
Neobrađeno ETNW 131020Z 23013KT 9999 BKN030 17/10 Q1011 BLU

MVFR

17°C / 11°C

[Više]
Vetar 240º 11kt
Vidljivost 9700m
Vreme -
Oblaci Broken Clouds 2500ft
Pritisak 1011
Promena -
Neobrađeno ETNW 130940Z 24011KT 9999 BKN025 17/11 Q1011 BLU

MVFR

17°C / 11°C

[Više]
Vetar 240º 10kt
Vidljivost 9700m
Vreme -
Oblaci Broken Clouds 2200ft
Pritisak 1010
Promena -
Neobrađeno ETNW 130920Z 24010KT 9999 BKN022 17/11 Q1010 WHT

TAF za Bordenau (ETNW)

From till


From till Wind 220º 8kt. Visibility 9700m. Few Clouds 5000ft.
With 30% probability, from till Wind 220º 10kt. Gust 20kt. Visibility 4000m. Showers Rain . Broken Clouds 2000ft.

Neobrađeno: TAF ETNW 140401Z 1405/1505 22008KT 9999 NSW FEW050 PROB30 1413/1416 22010G20KT 4000 SHRA BKN020CB

rainNOW: Trenutna prognoza za kišu za Bordenau i okolinu (radijus 25 km)

0.0 mm
0.0 mm
0.0 mm
0.0 mm
0.0 mm
0.0 mm
0.0 mm
0.0 mm
0.0 mm
0.0 mm
0.0 mm
0.0 mm

Radar i padavine kratka prognoza za Bordenau

Rominjati
Laka
Umereno
Teška
Vrlo teška
Grad

Marker lokacije postavljen je na Bordenau. Ova animacija prikazuje radar za padavine za izabrani vremenski opseg, kao i 2h prognozu. Narandžasti krstovi označavaju munju. Podatke obezbedio nowcast.de (dostupni u SAD, Evropi, Australiji). Kiša ili slab sneg mogu biti nevidljivi za radar. Intenzitet padavina je označen bojom, u rasponu od tirkizne do crvene.

Trenutni satelitski snimci i slike kiše za Bordenau, Немачка

Marker lokacije postavljen je na Bordenau. [Više]

Satelitski snimci u realnom vremenu kombinuju vidljivu svetlost tokom dana sa infracrvenim zračenjem tokom noći. Noću slika nije tamna jer infracrveno zračenje može otkriti temperaturne razlike. Nažalost, niski oblaci i magla teško se mogu razlikovati od temperature zemlje tako da mogu biti skoro nevidljivi tokom noći. Meteosat satelitski snimci za Evropu se ažuriraju u realnom vremenu na svakih 5 minuta. Snimci GOES-16/GOES-17 (Severna i Južna Amerika) i Himavari (Azija) ažuriraju se na svakih 10 minuta.

Padavine se procenjuju pomoću radara i satelita. Procene padavina sa satelita su manje tačne noću nego tokom dana.

© 2024 meteoblue, NOAA Satellites GOES-16 and EUMETSAT. Podaci za munje obezbeđeni od nowcast.

Nazad na vrh
×
Zdravo,
izgleda da koristite blokator oglasa.

Oglašavanje je neophodno za održavanje naše besplatne veb stranice sa jedinstvenim detaljima i tačnošću.

Molimo vas da stavite na belu listu www.meteoblue.com na svom blokatoru oglasa ili razmislite o kupovini nekog od naših proizvoda:

Već imate pretplatu?
Onda se prijavite.